Time,TemperatureF,DewpointF,PressureIn,WindDirection,WindDirectionDegrees,WindSpeedMPH,WindSpeedGustMPH,Humidity,HourlyPrecipIn,Conditions,Clouds,dailyrainin,SoftwareType,DateUTC
2013-12-01 00:02:00,29.0,20.0,-100.00,NW,320,1.0,2.0,68,0.00,,,-99.99,,2013-12-01 06:02:00,
2013-12-01 00:12:00,29.0,20.0,-100.00,NW,320,1.0,2.0,68,0.00,,,-99.99,,2013-12-01 06:12:00,
2013-12-01 00:52:00,29.0,20.0,-100.00,West,275,2.0,4.0,70,0.00,,,-99.99,,2013-12-01 06:52:00,
2013-12-01 01:01:00,29.0,20.0,-100.00,West,275,2.0,4.0,70,0.00,,,-99.99,,2013-12-01 07:01:00,
2013-12-01 01:12:00,29.0,20.0,-100.00,West,275,2.0,4.0,70,0.00,,,-99.99,,2013-12-01 07:12:00,
2013-12-01 01:52:00,29.0,21.0,-100.00,WNW,285,1.0,2.0,73,0.00,,,-99.99,,2013-12-01 07:52:00,
2013-12-01 02:02:00,29.0,21.0,-100.00,WNW,285,1.0,2.0,73,0.00,,,-99.99,,2013-12-01 08:02:00,
2013-12-01 02:11:00,29.0,21.0,-100.00,WNW,285,1.0,2.0,73,0.00,,,-99.99,,2013-12-01 08:11:00,
2013-12-01 02:52:00,28.0,22.0,-100.00,WNW,295,0.0,1.0,77,0.00,,,-99.99,,2013-12-01 08:52:00,
2013-12-01 03:02:00,28.0,22.0,-100.00,WNW,295,0.0,1.0,77,0.00,,,-99.99,,2013-12-01 09:02:00,
2013-12-01 03:11:00,28.0,22.0,-100.00,WNW,295,0.0,1.0,77,0.00,,,-99.99,,2013-12-01 09:11:00,
2013-12-01 03:54:00,28.0,22.0,-100.00,West,280,1.0,2.0,78,0.00,,,-99.99,,2013-12-01 09:54:00,
2013-12-01 04:03:00,28.0,22.0,-100.00,West,280,1.0,2.0,78,0.00,,,-99.99,,2013-12-01 10:03:00,
2013-12-01 04:12:00,28.0,22.0,-100.00,West,280,1.0,2.0,78,0.00,,,-99.99,,2013-12-01 10:12:00,
2013-12-01 04:53:00,28.0,22.0,-100.00,WNW,300,1.0,3.0,80,0.00,,,-99.99,,2013-12-01 10:53:00,
2013-12-01 05:02:00,28.0,22.0,-100.00,WNW,300,1.0,3.0,80,0.00,,,-99.99,,2013-12-01 11:02:00,
2013-12-01 05:12:00,28.0,22.0,-100.00,WNW,300,1.0,3.0,80,0.00,,,-99.99,,2013-12-01 11:12:00,
2013-12-01 05:52:00,28.0,23.0,-100.00,West,280,3.0,4.0,81,0.00,,,-99.99,,2013-12-01 11:52:00,
2013-12-01 06:02:00,28.0,23.0,-100.00,West,280,3.0,4.0,81,0.00,,,-99.99,,2013-12-01 12:02:00,
2013-12-01 06:12:00,28.0,23.0,-100.00,West,280,3.0,4.0,81,0.00,,,-99.99,,2013-12-01 12:12:00,
2013-12-01 06:52:00,28.0,22.0,-100.00,West,275,1.0,3.0,81,0.00,,,-99.99,,2013-12-01 12:52:00,
2013-12-01 07:01:00,28.0,22.0,-100.00,West,275,1.0,3.0,81,0.00,,,-99.99,,2013-12-01 13:01:00,
2013-12-01 07:11:00,28.0,22.0,-100.00,West,275,1.0,3.0,81,0.00,,,-99.99,,2013-12-01 13:11:00,
2013-12-01 07:52:00,28.0,23.0,-100.00,WNW,295,1.0,2.0,82,0.00,,,-99.99,,2013-12-01 13:52:00,
2013-12-01 08:02:00,28.0,23.0,-100.00,WNW,295,1.0,2.0,82,0.00,,,-99.99,,2013-12-01 14:02:00,
2013-12-01 08:12:00,28.0,23.0,-100.00,WNW,295,1.0,2.0,82,0.00,,,-99.99,,2013-12-01 14:12:00,
2013-12-01 08:52:00,28.0,23.0,-100.00,WNW,290,1.0,2.0,83,0.00,,,-99.99,,2013-12-01 14:52:00,
2013-12-01 09:01:00,28.0,23.0,-100.00,WNW,290,1.0,2.0,83,0.00,,,-99.99,,2013-12-01 15:01:00,
2013-12-01 09:11:00,28.0,23.0,-100.00,WNW,290,1.0,2.0,83,0.00,,,-99.99,,2013-12-01 15:11:00,
2013-12-01 09:53:00,29.0,24.0,-100.00,West,275,3.0,7.0,80,0.00,,,-99.99,,2013-12-01 15:53:00,
2013-12-01 10:03:00,29.0,24.0,-100.00,West,275,3.0,7.0,80,0.00,,,-99.99,,2013-12-01 16:03:00,
2013-12-01 10:13:00,29.0,24.0,-100.00,West,275,3.0,7.0,80,0.00,,,-99.99,,2013-12-01 16:13:00,
2013-12-01 10:43:00,30.0,23.0,-100.00,West,280,2.0,5.0,75,0.00,,,-99.99,,2013-12-01 16:43:00,
2013-12-01 10:52:00,30.0,23.0,-100.00,West,280,2.0,5.0,75,0.00,,,-99.99,,2013-12-01 16:52:00,
2013-12-01 11:02:00,30.0,23.0,-100.00,West,280,2.0,5.0,75,0.00,,,-99.99,,2013-12-01 17:02:00,
2013-12-01 11:12:00,30.0,23.0,-100.00,West,280,2.0,5.0,75,0.00,,,-99.99,,2013-12-01 17:12:00,
2013-12-01 11:52:00,31.0,22.0,-100.00,West,275,6.0,7.0,71,0.00,,,-99.99,,2013-12-01 17:52:00,
2013-12-01 12:02:00,31.0,22.0,-100.00,West,275,6.0,7.0,71,0.00,,,-99.99,,2013-12-01 18:02:00,
2013-12-01 12:12:00,31.0,22.0,-100.00,West,275,6.0,7.0,71,0.00,,,-99.99,,2013-12-01 18:12:00,
2013-12-01 12:52:00,32.0,22.0,-100.00,West,260,2.0,6.0,67,0.00,,,-99.99,,2013-12-01 18:52:00,
2013-12-01 13:02:00,32.0,22.0,-100.00,West,260,2.0,6.0,67,0.00,,,-99.99,,2013-12-01 19:02:00,
2013-12-01 13:11:00,32.0,22.0,-100.00,West,260,2.0,6.0,67,0.00,,,-99.99,,2013-12-01 19:11:00,
2013-12-01 13:52:00,32.0,20.0,-100.00,WSW,250,2.0,7.0,61,0.00,,,-99.99,,2013-12-01 19:52:00,
2013-12-01 14:01:00,32.0,20.0,-100.00,WSW,250,2.0,7.0,61,0.00,,,-99.99,,2013-12-01 20:01:00,
2013-12-01 14:11:00,32.0,20.0,-100.00,WSW,250,2.0,7.0,61,0.00,,,-99.99,,2013-12-01 20:11:00,
2013-12-01 14:52:00,32.0,19.0,-100.00,WSW,240,2.0,6.0,59,0.00,,,-99.99,,2013-12-01 20:52:00,
2013-12-01 15:02:00,32.0,19.0,-100.00,WSW,240,2.0,6.0,59,0.00,,,-99.99,,2013-12-01 21:02:00,
2013-12-01 15:12:00,32.0,19.0,-100.00,WSW,240,2.0,6.0,59,0.00,,,-99.99,,2013-12-01 21:12:00,
2013-12-01 15:53:00,31.0,18.0,-100.00,SW,235,3.0,6.0,58,0.00,,,-99.99,,2013-12-01 21:53:00,
2013-12-01 16:03:00,31.0,18.0,-100.00,SW,235,3.0,6.0,58,0.00,,,-99.99,,2013-12-01 22:03:00,
2013-12-01 16:13:00,31.0,18.0,-100.00,SW,235,3.0,6.0,58,0.00,,,-99.99,,2013-12-01 22:13:00,
2013-12-01 16:52:00,30.0,18.0,-100.00,West,275,5.0,10.0,59,0.00,,,-99.99,,2013-12-01 22:52:00,
2013-12-01 17:02:00,30.0,18.0,-100.00,West,275,5.0,10.0,59,0.00,,,-99.99,,2013-12-01 23:02:00,
2013-12-01 17:12:00,30.0,18.0,-100.00,West,275,5.0,10.0,59,0.00,,,-99.99,,2013-12-01 23:12:00,
2013-12-01 17:52:00,29.0,17.0,-100.00,West,275,6.0,11.0,62,0.00,,,-99.99,,2013-12-01 23:52:00,
2013-12-01 18:02:00,29.0,17.0,-100.00,West,275,6.0,11.0,62,0.00,,,-99.99,,2013-12-02 00:02:00,
2013-12-01 18:11:00,29.0,17.0,-100.00,West,275,6.0,11.0,62,0.00,,,-99.99,,2013-12-02 00:11:00,
2013-12-01 18:52:00,28.0,17.0,-100.00,West,265,2.0,6.0,62,0.00,,,-99.99,,2013-12-02 00:52:00,
2013-12-01 19:01:00,28.0,17.0,-100.00,West,265,2.0,6.0,62,0.00,,,-99.99,,2013-12-02 01:01:00,
2013-12-01 19:11:00,28.0,17.0,-100.00,West,265,2.0,6.0,62,0.00,,,-99.99,,2013-12-02 01:11:00,
2013-12-01 19:52:00,27.0,16.0,-100.00,WSW,255,2.0,6.0,62,0.00,,,-99.99,,2013-12-02 01:52:00,
2013-12-01 20:01:00,27.0,16.0,-100.00,WSW,255,2.0,6.0,62,0.00,,,-99.99,,2013-12-02 02:01:00,
2013-12-01 20:11:00,27.0,16.0,-100.00,WSW,255,2.0,6.0,62,0.00,,,-99.99,,2013-12-02 02:11:00,
2013-12-01 20:52:00,27.0,17.0,-100.00,WSW,255,1.0,2.0,63,0.00,,,-99.99,,2013-12-02 02:52:00,
2013-12-01 21:02:00,27.0,17.0,-100.00,WSW,255,1.0,2.0,63,0.00,,,-99.99,,2013-12-02 03:02:00,
2013-12-01 21:11:00,27.0,17.0,-100.00,WSW,255,1.0,2.0,63,0.00,,,-99.99,,2013-12-02 03:11:00,
2013-12-01 21:13:00,27.0,17.0,-100.00,SW,220,1.0,1.0,64,0.00,,,-99.99,,2013-12-02 03:13:00,
2013-12-01 21:43:00,27.0,17.0,-100.00,SW,220,1.0,1.0,64,0.00,,,-99.99,,2013-12-02 03:43:00,
2013-12-01 21:54:00,27.0,17.0,-100.00,SW,220,1.0,1.0,64,0.00,,,-99.99,,2013-12-02 03:54:00,
2013-12-01 22:03:00,27.0,17.0,-100.00,SW,220,1.0,1.0,64,0.00,,,-99.99,,2013-12-02 04:03:00,
2013-12-01 22:53:00,27.0,17.0,-100.00,WSW,255,0.0,3.0,66,0.00,,,-99.99,,2013-12-02 04:53:00,
2013-12-01 23:02:00,27.0,17.0,-100.00,WSW,255,0.0,3.0,66,0.00,,,-99.99,,2013-12-02 05:02:00,
2013-12-01 23:12:00,27.0,17.0,-100.00,WSW,255,0.0,3.0,66,0.00,,,-99.99,,2013-12-02 05:12:00,
2013-12-01 23:53:00,27.0,17.0,-100.00,WSW,240,0.0,2.0,67,0.00,,,-99.99,,2013-12-02 05:53:00,